Crew | Aerofun Virtual



 METAR AND TAF INFORMATION
METAR FOR LIMC
ADDS - METARS form results

(0500 UTC 20 May 2019)
Data provider http://aviationweather.gov/metar/data/
 
METAR text: LIMC 200450Z 30002KT 0500 R35R/P1500N R17L/P1500N R35L/P1500N -RA FG SCT005 BKN070 12/12 Q1004 NOSIG
Conditions at: LIMC (MILANO/MALPENSA , IT) observed 0450 UTC 20 May 2019
Temperature: 12.0°C (54°F)
Dewpoint: 12.0°C (54°F) [RH = 100%]
Pressure (altimeter): 29.65 inches Hg (1004.0 mb)
Winds: from the WNW (300 degrees) at 2 MPH (2 knots; 1.0 m/s)
Visibility: 0.31 miles (0.50 km)
Ceiling: 7000 feet AGL
Clouds: scattered clouds at 500 feet AGL
broken clouds at 7000 feet AGL
Weather: -RA FG  (light rain, fog)

METAR text: LIMC 200420Z 35002KT 3000 R35R/1300U R17L/P1500N R35L/P1500N DZ BCFG SCT010 BKN070 11/11 Q1004 NOSIG
Conditions at: LIMC (MILANO/MALPENSA , IT) observed 0420 UTC 20 May 2019
Temperature: 11.0°C (52°F)
Dewpoint: 11.0°C (52°F) [RH = 100%]
Pressure (altimeter): 29.65 inches Hg (1004.0 mb)
Winds: from the N (350 degrees) at 2 MPH (2 knots; 1.0 m/s)
Visibility: 1.86 miles (2.99 km)
Ceiling: 7000 feet AGL
Clouds: scattered clouds at 1000 feet AGL
broken clouds at 7000 feet AGL
Weather: BCFG DZ  (patches of fog, moderate drizzle)

Forecast for: LIMC (MILANO/MALPENSA , IT)
Text: TAF LIMC 192300Z 2000/2106 VRB05KT 9999 SCT020 BKN050
Forecast period: 0000 UTC 20 May 2019 to 0600 UTC 21 May 2019
Forecast type: FROM: standard forecast or significant change
Winds: variable direction winds at 6 MPH (5 knots; 2.6 m/s)
Visibility: 6 or more miles 10+ km)
Ceiling: 5000 feet AGL
Clouds: scattered clouds at 2000 feet AGL
broken clouds at 5000 feet AGL
Weather: no significant weather forecast for this period
Text: TEMPO 2000/2012 4000 RA
Forecast period: 0000 to 1200 UTC 20 May 2019
Forecast type: TEMPORARY: The following changes expected for less than half the time period
Visibility: 2.49 miles (4.01 km)
Ceiling: unknown
Clouds: missing
Weather: RA  (moderate rain)

 AIRPORT MAP

 RUNWAY INFORMATION
Runway 17L Runway length 12861 ft Runway width 197 ft
Runway elevation 745 ft Runway displaced threshold 3094 ft Runway heading 170
Runway 35R Runway length 12861 ft Runway width 197 ft
Runway elevation 691 ft Runway displaced threshold 0 ft Runway heading 350
Runway 17R Runway length 12861 ft Runway width 197 ft
Runway elevation 764 ft Runway displaced threshold 0 ft Runway heading 170
Runway 35L Runway length 12861 ft Runway width 197 ft
Runway elevation 696 ft Runway displaced threshold 1329 ft Runway heading 350

 AIRPORT FREQUENCIES
Type APP Name MILANO APP Frequency 132.7 MHZ
Type ATIS Name ATIS Frequency 120.025 MHZ
Type CLD Name CLNC DEL Frequency 120.9 MHZ
Type DEP Name MILANO DEP Frequency 126.75 MHZ
Type GND Name GND Frequency 121.9 MHZ
Type TWR Name TWR Frequency 119 MHZ

 AIRPORT NEAR NAVIGATION AIDS
Type VOR-DME Name Malpensa Frequency 111200 KHZ
Type NDB Name Malpensa Frequency 364 KHZ